sensor_id;sensor_type;location;lat;lon;timestamp;P1;durP1;ratioP1;P2;durP2;ratioP2
36475;SDS011;56615;42.682;23.364;2022-12-29T00:00:48;45.42;;;26.92;;
36475;SDS011;56615;42.682;23.364;2022-12-29T00:03:14;50.17;;;28.73;;
36475;SDS011;56615;42.682;23.364;2022-12-29T00:08:24;48.40;;;29.77;;
36475;SDS011;56615;42.682;23.364;2022-12-29T00:11:05;51.15;;;28.65;;
36475;SDS011;56615;42.682;23.364;2022-12-29T00:13:35;43.17;;;27.45;;
36475;SDS011;56615;42.682;23.364;2022-12-29T00:16:21;35.65;;;22.85;;
36475;SDS011;56615;42.682;23.364;2022-12-29T00:18:52;29.23;;;17.38;;
36475;SDS011;56615;42.682;23.364;2022-12-29T00:24:02;26.92;;;17.48;;
36475;SDS011;56615;42.682;23.364;2022-12-29T00:26:53;28.23;;;18.38;;
36475;SDS011;56615;42.682;23.364;2022-12-29T00:29:46;28.02;;;17.85;;
36475;SDS011;56615;42.682;23.364;2022-12-29T00:32:30;30.08;;;18.98;;
36475;SDS011;56615;42.682;23.364;2022-12-29T00:35:17;30.98;;;20.10;;
36475;SDS011;56615;42.682;23.364;2022-12-29T00:37:49;31.15;;;19.73;;
36475;SDS011;56615;42.682;23.364;2022-12-29T00:40:34;29.38;;;19.08;;
36475;SDS011;56615;42.682;23.364;2022-12-29T00:43:18;29.17;;;19.00;;
36475;SDS011;56615;42.682;23.364;2022-12-29T00:46:02;34.15;;;20.17;;
36475;SDS011;56615;42.682;23.364;2022-12-29T00:51:39;31.17;;;18.42;;
36475;SDS011;56615;42.682;23.364;2022-12-29T00:54:04;30.42;;;19.15;;
36475;SDS011;56615;42.682;23.364;2022-12-29T00:56:30;28.45;;;19.05;;
36475;SDS011;56615;42.682;23.364;2022-12-29T00:59:06;29.42;;;18.52;;
36475;SDS011;56615;42.682;23.364;2022-12-29T01:01:33;31.73;;;19.60;;
36475;SDS011;56615;42.682;23.364;2022-12-29T01:03:59;36.25;;;20.50;;
36475;SDS011;56615;42.682;23.364;2022-12-29T01:06:25;31.58;;;19.85;;
36475;SDS011;56615;42.682;23.364;2022-12-29T01:08:51;31.55;;;19.23;;
36475;SDS011;56615;42.682;23.364;2022-12-29T01:11:35;32.13;;;19.42;;
36475;SDS011;56615;42.682;23.364;2022-12-29T01:14:06;31.05;;;19.67;;
36475;SDS011;56615;42.682;23.364;2022-12-29T01:16:32;35.20;;;22.05;;
36475;SDS011;56615;42.682;23.364;2022-12-29T01:18:58;39.45;;;24.27;;
36475;SDS011;56615;42.682;23.364;2022-12-29T01:21:23;39.15;;;24.83;;
36475;SDS011;56615;42.682;23.364;2022-12-29T01:23:49;34.88;;;21.58;;
36475;SDS011;56615;42.682;23.364;2022-12-29T01:26:15;28.15;;;18.33;;
36475;SDS011;56615;42.682;23.364;2022-12-29T01:28:42;28.00;;;17.52;;
36475;SDS011;56615;42.682;23.364;2022-12-29T01:31:08;29.38;;;17.38;;
36475;SDS011;56615;42.682;23.364;2022-12-29T01:33:34;29.95;;;18.88;;
36475;SDS011;56615;42.682;23.364;2022-12-29T01:36:00;27.42;;;17.63;;
36475;SDS011;56615;42.682;23.364;2022-12-29T01:38:26;29.75;;;17.15;;
36475;SDS011;56615;42.682;23.364;2022-12-29T01:40:53;28.35;;;17.27;;
36475;SDS011;56615;42.682;23.364;2022-12-29T01:43:21;28.40;;;17.38;;
36475;SDS011;56615;42.682;23.364;2022-12-29T01:45:50;28.42;;;17.05;;
36475;SDS011;56615;42.682;23.364;2022-12-29T01:48:21;28.80;;;18.13;;
36475;SDS011;56615;42.682;23.364;2022-12-29T01:51:14;27.77;;;17.92;;
36475;SDS011;56615;42.682;23.364;2022-12-29T01:53:54;23.65;;;15.52;;
36475;SDS011;56615;42.682;23.364;2022-12-29T01:56:43;24.65;;;16.45;;
36475;SDS011;56615;42.682;23.364;2022-12-29T01:59:19;23.60;;;16.35;;
36475;SDS011;56615;42.682;23.364;2022-12-29T02:01:51;25.65;;;16.65;;
36475;SDS011;56615;42.682;23.364;2022-12-29T02:04:17;25.20;;;15.90;;
36475;SDS011;56615;42.682;23.364;2022-12-29T02:06:46;24.75;;;16.02;;
36475;SDS011;56615;42.682;23.364;2022-12-29T02:09:25;23.75;;;14.98;;
36475;SDS011;56615;42.682;23.364;2022-12-29T02:12:03;24.38;;;16.20;;
36475;SDS011;56615;42.682;23.364;2022-12-29T02:15:00;26.38;;;15.80;;
36475;SDS011;56615;42.682;23.364;2022-12-29T02:17:55;24.38;;;15.43;;
36475;SDS011;56615;42.682;23.364;2022-12-29T02:24:16;26.20;;;15.75;;
36475;SDS011;56615;42.682;23.364;2022-12-29T02:47:15;22.85;;;14.60;;
36475;SDS011;56615;42.682;23.364;2022-12-29T02:50:25;24.50;;;14.82;;
36475;SDS011;56615;42.682;23.364;2022-12-29T02:53:07;25.00;;;15.80;;
36475;SDS011;56615;42.682;23.364;2022-12-29T02:55:51;24.50;;;14.82;;
36475;SDS011;56615;42.682;23.364;2022-12-29T02:58:22;22.33;;;14.60;;
36475;SDS011;56615;42.682;23.364;2022-12-29T03:03:48;23.75;;;15.18;;
36475;SDS011;56615;42.682;23.364;2022-12-29T03:12:05;25.75;;;16.17;;
36475;SDS011;56615;42.682;23.364;2022-12-29T03:15:00;27.15;;;17.00;;
36475;SDS011;56615;42.682;23.364;2022-12-29T03:20:36;26.33;;;16.65;;
36475;SDS011;56615;42.682;23.364;2022-12-29T03:23:04;27.83;;;16.13;;
36475;SDS011;56615;42.682;23.364;2022-12-29T03:25:30;28.05;;;16.40;;
36475;SDS011;56615;42.682;23.364;2022-12-29T03:28:09;31.55;;;17.33;;
36475;SDS011;56615;42.682;23.364;2022-12-29T03:30:37;26.77;;;16.27;;
36475;SDS011;56615;42.682;23.364;2022-12-29T03:36:00;26.85;;;15.23;;
36475;SDS011;56615;42.682;23.364;2022-12-29T03:38:34;27.27;;;16.08;;
36475;SDS011;56615;42.682;23.364;2022-12-29T03:41:06;27.10;;;17.08;;
36475;SDS011;56615;42.682;23.364;2022-12-29T03:45:59;27.40;;;16.80;;
36475;SDS011;56615;42.682;23.364;2022-12-29T03:48:30;27.95;;;17.55;;
36475;SDS011;56615;42.682;23.364;2022-12-29T03:52:09;32.58;;;17.88;;
36475;SDS011;56615;42.682;23.364;2022-12-29T03:55:18;29.55;;;18.85;;
36475;SDS011;56615;42.682;23.364;2022-12-29T03:57:44;31.92;;;19.52;;
36475;SDS011;56615;42.682;23.364;2022-12-29T04:06:00;32.72;;;19.50;;
36475;SDS011;56615;42.682;23.364;2022-12-29T04:08:26;34.83;;;19.83;;
36475;SDS011;56615;42.682;23.364;2022-12-29T04:10:53;37.70;;;19.33;;
36475;SDS011;56615;42.682;23.364;2022-12-29T04:13:39;33.67;;;19.90;;
36475;SDS011;56615;42.682;23.364;2022-12-29T04:16:06;34.13;;;19.30;;
36475;SDS011;56615;42.682;23.364;2022-12-29T04:18:42;32.50;;;19.25;;
36475;SDS011;56615;42.682;23.364;2022-12-29T04:21:08;33.13;;;19.35;;
36475;SDS011;56615;42.682;23.364;2022-12-29T04:23:36;33.95;;;20.92;;
36475;SDS011;56615;42.682;23.364;2022-12-29T04:26:07;30.00;;;18.60;;
36475;SDS011;56615;42.682;23.364;2022-12-29T04:28:44;32.80;;;19.65;;
36475;SDS011;56615;42.682;23.364;2022-12-29T04:31:11;27.73;;;16.65;;
36475;SDS011;56615;42.682;23.364;2022-12-29T04:33:38;26.77;;;15.95;;
36475;SDS011;56615;42.682;23.364;2022-12-29T04:36:06;27.75;;;17.25;;
36475;SDS011;56615;42.682;23.364;2022-12-29T04:38:31;25.80;;;15.68;;
36475;SDS011;56615;42.682;23.364;2022-12-29T04:41:01;26.42;;;16.00;;
36475;SDS011;56615;42.682;23.364;2022-12-29T04:43:28;25.30;;;15.38;;
36475;SDS011;56615;42.682;23.364;2022-12-29T04:45:55;24.88;;;16.13;;
36475;SDS011;56615;42.682;23.364;2022-12-29T04:48:28;42.53;;;24.33;;
36475;SDS011;56615;42.682;23.364;2022-12-29T04:50:59;58.13;;;33.05;;
36475;SDS011;56615;42.682;23.364;2022-12-29T04:53:27;26.23;;;15.00;;
36475;SDS011;56615;42.682;23.364;2022-12-29T04:55:53;25.23;;;15.60;;
36475;SDS011;56615;42.682;23.364;2022-12-29T04:58:29;25.27;;;15.85;;
36475;SDS011;56615;42.682;23.364;2022-12-29T05:00:55;25.00;;;15.52;;
36475;SDS011;56615;42.682;23.364;2022-12-29T05:03:24;23.42;;;14.48;;
36475;SDS011;56615;42.682;23.364;2022-12-29T05:06:17;26.52;;;15.35;;
36475;SDS011;56615;42.682;23.364;2022-12-29T05:12:11;22.80;;;14.75;;
36475;SDS011;56615;42.682;23.364;2022-12-29T05:15:05;24.38;;;15.05;;
36475;SDS011;56615;42.682;23.364;2022-12-29T05:23:10;26.15;;;15.27;;
36475;SDS011;56615;42.682;23.364;2022-12-29T05:25:37;26.95;;;16.33;;
36475;SDS011;56615;42.682;23.364;2022-12-29T05:28:11;24.65;;;15.82;;
36475;SDS011;56615;42.682;23.364;2022-12-29T05:30:50;25.40;;;16.92;;
36475;SDS011;56615;42.682;23.364;2022-12-29T05:33:17;29.42;;;18.42;;
36475;SDS011;56615;42.682;23.364;2022-12-29T05:35:46;27.75;;;17.40;;
36475;SDS011;56615;42.682;23.364;2022-12-29T05:38:14;26.13;;;16.77;;
36475;SDS011;56615;42.682;23.364;2022-12-29T05:40:48;70.18;;;41.60;;
36475;SDS011;56615;42.682;23.364;2022-12-29T05:43:20;55.80;;;34.78;;
36475;SDS011;56615;42.682;23.364;2022-12-29T05:49:34;36.55;;;23.45;;
36475;SDS011;56615;42.682;23.364;2022-12-29T05:55:09;36.15;;;22.48;;
36475;SDS011;56615;42.682;23.364;2022-12-29T05:57:35;35.15;;;21.20;;
36475;SDS011;56615;42.682;23.364;2022-12-29T06:00:00;33.38;;;20.23;;
36475;SDS011;56615;42.682;23.364;2022-12-29T06:02:28;32.67;;;20.45;;
36475;SDS011;56615;42.682;23.364;2022-12-29T06:04:53;59.92;;;41.35;;
36475;SDS011;56615;42.682;23.364;2022-12-29T06:07:19;35.63;;;23.92;;
36475;SDS011;56615;42.682;23.364;2022-12-29T06:09:44;29.58;;;18.70;;
36475;SDS011;56615;42.682;23.364;2022-12-29T06:12:09;28.40;;;17.25;;
36475;SDS011;56615;42.682;23.364;2022-12-29T06:14:36;25.55;;;16.40;;
36475;SDS011;56615;42.682;23.364;2022-12-29T06:17:01;26.35;;;16.77;;
36475;SDS011;56615;42.682;23.364;2022-12-29T06:19:27;28.90;;;18.70;;
36475;SDS011;56615;42.682;23.364;2022-12-29T06:21:54;29.63;;;18.45;;
36475;SDS011;56615;42.682;23.364;2022-12-29T06:24:20;27.45;;;17.33;;
36475;SDS011;56615;42.682;23.364;2022-12-29T06:27:00;31.58;;;17.23;;
36475;SDS011;56615;42.682;23.364;2022-12-29T06:29:36;27.70;;;17.17;;
36475;SDS011;56615;42.682;23.364;2022-12-29T06:32:02;30.50;;;19.60;;
36475;SDS011;56615;42.682;23.364;2022-12-29T06:34:28;32.17;;;19.85;;
36475;SDS011;56615;42.682;23.364;2022-12-29T06:36:54;33.65;;;19.95;;
36475;SDS011;56615;42.682;23.364;2022-12-29T06:39:19;31.35;;;18.95;;
36475;SDS011;56615;42.682;23.364;2022-12-29T06:41:45;33.38;;;20.25;;
36475;SDS011;56615;42.682;23.364;2022-12-29T06:44:10;30.42;;;19.13;;
36475;SDS011;56615;42.682;23.364;2022-12-29T06:46:35;33.05;;;19.98;;
36475;SDS011;56615;42.682;23.364;2022-12-29T06:49:01;30.40;;;19.38;;
36475;SDS011;56615;42.682;23.364;2022-12-29T06:51:27;30.70;;;19.42;;
36475;SDS011;56615;42.682;23.364;2022-12-29T06:53:53;38.38;;;20.02;;
36475;SDS011;56615;42.682;23.364;2022-12-29T06:56:18;29.58;;;18.70;;
36475;SDS011;56615;42.682;23.364;2022-12-29T06:58:57;36.53;;;20.10;;
36475;SDS011;56615;42.682;23.364;2022-12-29T07:07:35;32.22;;;20.52;;
36475;SDS011;56615;42.682;23.364;2022-12-29T07:10:10;32.45;;;20.17;;
36475;SDS011;56615;42.682;23.364;2022-12-29T07:13:02;34.75;;;22.27;;
36475;SDS011;56615;42.682;23.364;2022-12-29T07:15:38;31.38;;;20.33;;
36475;SDS011;56615;42.682;23.364;2022-12-29T07:38:27;37.50;;;23.42;;
36475;SDS011;56615;42.682;23.364;2022-12-29T07:44:18;39.40;;;25.15;;
36475;SDS011;56615;42.682;23.364;2022-12-29T07:47:36;49.35;;;29.50;;
36475;SDS011;56615;42.682;23.364;2022-12-29T07:53:30;41.13;;;27.52;;
36475;SDS011;56615;42.682;23.364;2022-12-29T07:57:02;38.65;;;24.70;;
36475;SDS011;56615;42.682;23.364;2022-12-29T08:00:47;38.40;;;22.98;;
36475;SDS011;56615;42.682;23.364;2022-12-29T08:03:30;35.13;;;22.50;;
36475;SDS011;56615;42.682;23.364;2022-12-29T08:06:00;33.65;;;22.52;;
36475;SDS011;56615;42.682;23.364;2022-12-29T08:08:49;36.28;;;24.33;;
36475;SDS011;56615;42.682;23.364;2022-12-29T08:11:15;43.60;;;28.70;;
36475;SDS011;56615;42.682;23.364;2022-12-29T08:13:42;40.92;;;26.77;;
36475;SDS011;56615;42.682;23.364;2022-12-29T08:22:07;34.72;;;23.17;;
36475;SDS011;56615;42.682;23.364;2022-12-29T08:24:32;38.35;;;24.27;;
36475;SDS011;56615;42.682;23.364;2022-12-29T08:26:57;38.17;;;25.52;;
36475;SDS011;56615;42.682;23.364;2022-12-29T08:29:23;41.38;;;25.63;;
36475;SDS011;56615;42.682;23.364;2022-12-29T08:38:05;34.75;;;22.25;;
36475;SDS011;56615;42.682;23.364;2022-12-29T08:40:33;34.10;;;21.00;;
36475;SDS011;56615;42.682;23.364;2022-12-29T08:46:31;37.97;;;22.00;;
36475;SDS011;56615;42.682;23.364;2022-12-29T08:54:32;34.45;;;21.58;;
36475;SDS011;56615;42.682;23.364;2022-12-29T08:57:26;31.13;;;21.67;;
36475;SDS011;56615;42.682;23.364;2022-12-29T08:59:53;35.30;;;21.63;;
36475;SDS011;56615;42.682;23.364;2022-12-29T09:02:20;30.42;;;20.60;;
36475;SDS011;56615;42.682;23.364;2022-12-29T09:04:46;32.17;;;20.98;;
36475;SDS011;56615;42.682;23.364;2022-12-29T09:07:12;30.55;;;20.30;;
36475;SDS011;56615;42.682;23.364;2022-12-29T09:09:46;32.17;;;18.80;;
36475;SDS011;56615;42.682;23.364;2022-12-29T09:12:11;31.27;;;19.77;;
36475;SDS011;56615;42.682;23.364;2022-12-29T09:14:37;30.55;;;19.30;;
36475;SDS011;56615;42.682;23.364;2022-12-29T09:17:02;30.88;;;19.27;;
36475;SDS011;56615;42.682;23.364;2022-12-29T09:19:46;27.98;;;18.20;;
36475;SDS011;56615;42.682;23.364;2022-12-29T09:22:12;26.48;;;17.58;;
36475;SDS011;56615;42.682;23.364;2022-12-29T09:24:38;31.40;;;19.73;;
36475;SDS011;56615;42.682;23.364;2022-12-29T09:27:03;31.05;;;18.55;;
36475;SDS011;56615;42.682;23.364;2022-12-29T09:29:30;31.10;;;19.92;;
36475;SDS011;56615;42.682;23.364;2022-12-29T09:31:55;33.42;;;21.42;;
36475;SDS011;56615;42.682;23.364;2022-12-29T09:34:21;29.55;;;20.13;;
36475;SDS011;56615;42.682;23.364;2022-12-29T09:36:46;30.15;;;18.40;;
36475;SDS011;56615;42.682;23.364;2022-12-29T09:39:12;27.67;;;18.13;;
36475;SDS011;56615;42.682;23.364;2022-12-29T09:44:49;32.58;;;19.95;;
36475;SDS011;56615;42.682;23.364;2022-12-29T09:47:20;27.73;;;18.10;;
36475;SDS011;56615;42.682;23.364;2022-12-29T09:49:52;30.45;;;19.05;;
36475;SDS011;56615;42.682;23.364;2022-12-29T09:52:20;27.40;;;18.58;;
36475;SDS011;56615;42.682;23.364;2022-12-29T09:57:47;32.22;;;19.60;;
36475;SDS011;56615;42.682;23.364;2022-12-29T10:00:21;30.23;;;19.30;;
36475;SDS011;56615;42.682;23.364;2022-12-29T10:05:29;28.35;;;18.33;;
36475;SDS011;56615;42.682;23.364;2022-12-29T10:08:03;31.70;;;18.70;;
36475;SDS011;56615;42.682;23.364;2022-12-29T10:13:38;28.13;;;18.17;;
36475;SDS011;56615;42.682;23.364;2022-12-29T10:16:18;26.02;;;17.35;;
36475;SDS011;56615;42.682;23.364;2022-12-29T10:24:17;25.17;;;16.25;;
36475;SDS011;56615;42.682;23.364;2022-12-29T10:26:45;27.48;;;16.52;;
36475;SDS011;56615;42.682;23.364;2022-12-29T10:29:19;25.05;;;16.60;;
36475;SDS011;56615;42.682;23.364;2022-12-29T10:31:50;23.67;;;16.42;;
36475;SDS011;56615;42.682;23.364;2022-12-29T10:36:53;25.02;;;16.77;;
36475;SDS011;56615;42.682;23.364;2022-12-29T10:39:27;25.83;;;16.30;;
36475;SDS011;56615;42.682;23.364;2022-12-29T10:42:13;30.00;;;18.23;;
36475;SDS011;56615;42.682;23.364;2022-12-29T10:44:45;27.80;;;17.45;;
36475;SDS011;56615;42.682;23.364;2022-12-29T10:47:15;27.15;;;18.20;;
36475;SDS011;56615;42.682;23.364;2022-12-29T10:49:44;29.98;;;18.50;;
36475;SDS011;56615;42.682;23.364;2022-12-29T10:52:11;29.90;;;18.92;;
36475;SDS011;56615;42.682;23.364;2022-12-29T10:54:48;26.85;;;17.52;;
36475;SDS011;56615;42.682;23.364;2022-12-29T10:57:32;27.00;;;18.40;;
36475;SDS011;56615;42.682;23.364;2022-12-29T11:00:15;32.30;;;18.45;;
36475;SDS011;56615;42.682;23.364;2022-12-29T11:08:17;30.95;;;20.35;;
36475;SDS011;56615;42.682;23.364;2022-12-29T11:10:45;28.63;;;18.25;;
36475;SDS011;56615;42.682;23.364;2022-12-29T11:16:26;29.88;;;20.02;;
36475;SDS011;56615;42.682;23.364;2022-12-29T11:18:57;30.03;;;19.77;;
36475;SDS011;56615;42.682;23.364;2022-12-29T11:24:01;32.42;;;20.45;;
36475;SDS011;56615;42.682;23.364;2022-12-29T11:29:52;35.78;;;21.08;;
36475;SDS011;56615;42.682;23.364;2022-12-29T11:32:25;35.28;;;21.48;;
36475;SDS011;56615;42.682;23.364;2022-12-29T11:34:57;35.92;;;21.52;;
36475;SDS011;56615;42.682;23.364;2022-12-29T11:37:28;37.35;;;22.52;;
36475;SDS011;56615;42.682;23.364;2022-12-29T11:45:30;42.70;;;26.58;;
36475;SDS011;56615;42.682;23.364;2022-12-29T11:48:00;41.60;;;26.63;;
36475;SDS011;56615;42.682;23.364;2022-12-29T11:50:37;38.47;;;23.70;;
36475;SDS011;56615;42.682;23.364;2022-12-29T11:53:07;40.10;;;24.05;;
36475;SDS011;56615;42.682;23.364;2022-12-29T11:55:40;37.47;;;23.33;;
36475;SDS011;56615;42.682;23.364;2022-12-29T11:58:29;39.70;;;23.98;;
36475;SDS011;56615;42.682;23.364;2022-12-29T12:00:57;37.33;;;24.48;;
36475;SDS011;56615;42.682;23.364;2022-12-29T12:03:48;33.42;;;21.58;;
36475;SDS011;56615;42.682;23.364;2022-12-29T12:06:28;32.97;;;21.15;;
36475;SDS011;56615;42.682;23.364;2022-12-29T12:09:06;37.90;;;20.58;;
36475;SDS011;56615;42.682;23.364;2022-12-29T12:11:36;51.35;;;31.50;;
36475;SDS011;56615;42.682;23.364;2022-12-29T12:14:05;37.20;;;25.45;;
36475;SDS011;56615;42.682;23.364;2022-12-29T12:16:40;34.65;;;22.67;;
36475;SDS011;56615;42.682;23.364;2022-12-29T12:22:13;36.90;;;22.38;;
36475;SDS011;56615;42.682;23.364;2022-12-29T12:25:10;34.63;;;20.08;;
36475;SDS011;56615;42.682;23.364;2022-12-29T12:39:38;30.63;;;18.35;;
36475;SDS011;56615;42.682;23.364;2022-12-29T12:42:42;31.10;;;19.75;;
36475;SDS011;56615;42.682;23.364;2022-12-29T13:00:14;29.02;;;18.52;;
36475;SDS011;56615;42.682;23.364;2022-12-29T13:05:22;31.77;;;20.17;;
36475;SDS011;56615;42.682;23.364;2022-12-29T13:10:36;30.90;;;20.98;;
36475;SDS011;56615;42.682;23.364;2022-12-29T13:19:20;36.60;;;22.38;;
36475;SDS011;56615;42.682;23.364;2022-12-29T13:24:58;37.13;;;21.17;;
36475;SDS011;56615;42.682;23.364;2022-12-29T13:30:09;34.17;;;22.02;;
36475;SDS011;56615;42.682;23.364;2022-12-29T13:33:01;37.47;;;23.35;;
36475;SDS011;56615;42.682;23.364;2022-12-29T13:35:42;41.50;;;24.95;;
36475;SDS011;56615;42.682;23.364;2022-12-29T13:38:18;36.05;;;22.80;;
36475;SDS011;56615;42.682;23.364;2022-12-29T13:40:49;38.75;;;24.70;;
36475;SDS011;56615;42.682;23.364;2022-12-29T13:43:17;38.90;;;23.75;;
36475;SDS011;56615;42.682;23.364;2022-12-29T13:45:55;36.47;;;22.30;;
36475;SDS011;56615;42.682;23.364;2022-12-29T13:48:26;37.25;;;22.10;;
36475;SDS011;56615;42.682;23.364;2022-12-29T13:51:05;36.65;;;22.38;;
36475;SDS011;56615;42.682;23.364;2022-12-29T13:54:12;34.55;;;22.63;;
36475;SDS011;56615;42.682;23.364;2022-12-29T13:57:06;39.25;;;24.23;;
36475;SDS011;56615;42.682;23.364;2022-12-29T13:59:59;39.58;;;23.23;;
36475;SDS011;56615;42.682;23.364;2022-12-29T14:05:28;38.75;;;24.33;;
36475;SDS011;56615;42.682;23.364;2022-12-29T14:07:59;39.40;;;23.83;;
36475;SDS011;56615;42.682;23.364;2022-12-29T14:10:28;41.40;;;24.52;;
36475;SDS011;56615;42.682;23.364;2022-12-29T14:13:02;43.30;;;25.55;;
36475;SDS011;56615;42.682;23.364;2022-12-29T14:15:38;42.03;;;24.80;;
36475;SDS011;56615;42.682;23.364;2022-12-29T14:18:32;41.40;;;24.83;;
36475;SDS011;56615;42.682;23.364;2022-12-29T14:20:59;40.63;;;24.83;;
36475;SDS011;56615;42.682;23.364;2022-12-29T14:28:40;38.72;;;23.80;;
36475;SDS011;56615;42.682;23.364;2022-12-29T14:39:28;35.53;;;21.48;;
36475;SDS011;56615;42.682;23.364;2022-12-29T14:42:14;33.60;;;21.80;;
36475;SDS011;56615;42.682;23.364;2022-12-29T14:45:06;34.42;;;21.25;;
36475;SDS011;56615;42.682;23.364;2022-12-29T14:47:46;35.63;;;22.48;;
36475;SDS011;56615;42.682;23.364;2022-12-29T14:52:59;35.20;;;21.55;;
36475;SDS011;56615;42.682;23.364;2022-12-29T14:55:40;36.03;;;21.10;;
36475;SDS011;56615;42.682;23.364;2022-12-29T15:00:54;28.95;;;19.63;;
36475;SDS011;56615;42.682;23.364;2022-12-29T15:03:24;32.88;;;19.80;;
36475;SDS011;56615;42.682;23.364;2022-12-29T15:05:55;34.85;;;19.98;;
36475;SDS011;56615;42.682;23.364;2022-12-29T15:09:06;33.38;;;19.15;;
36475;SDS011;56615;42.682;23.364;2022-12-29T15:11:59;31.98;;;20.63;;
36475;SDS011;56615;42.682;23.364;2022-12-29T15:14:39;32.90;;;20.35;;
36475;SDS011;56615;42.682;23.364;2022-12-29T15:17:31;41.90;;;21.65;;
36475;SDS011;56615;42.682;23.364;2022-12-29T15:19:59;36.72;;;21.85;;
36475;SDS011;56615;42.682;23.364;2022-12-29T15:22:26;35.75;;;20.88;;
36475;SDS011;56615;42.682;23.364;2022-12-29T15:24:53;30.65;;;20.02;;
36475;SDS011;56615;42.682;23.364;2022-12-29T15:27:52;36.50;;;21.48;;
36475;SDS011;56615;42.682;23.364;2022-12-29T15:30:19;37.30;;;20.83;;
36475;SDS011;56615;42.682;23.364;2022-12-29T15:32:52;37.65;;;22.13;;
36475;SDS011;56615;42.682;23.364;2022-12-29T15:35:36;37.95;;;22.15;;
36475;SDS011;56615;42.682;23.364;2022-12-29T15:38:24;40.63;;;22.60;;
36475;SDS011;56615;42.682;23.364;2022-12-29T15:40:56;40.83;;;24.52;;
36475;SDS011;56615;42.682;23.364;2022-12-29T15:46:49;49.70;;;26.60;;
36475;SDS011;56615;42.682;23.364;2022-12-29T15:49:18;48.50;;;29.52;;
36475;SDS011;56615;42.682;23.364;2022-12-29T15:51:45;50.45;;;29.58;;
36475;SDS011;56615;42.682;23.364;2022-12-29T15:54:15;54.75;;;32.05;;
36475;SDS011;56615;42.682;23.364;2022-12-29T15:56:42;52.35;;;30.85;;
36475;SDS011;56615;42.682;23.364;2022-12-29T16:02:38;54.20;;;32.08;;
36475;SDS011;56615;42.682;23.364;2022-12-29T16:05:33;54.35;;;32.92;;
36475;SDS011;56615;42.682;23.364;2022-12-29T16:16:38;53.47;;;33.85;;
36475;SDS011;56615;42.682;23.364;2022-12-29T16:19:42;57.20;;;33.88;;
36475;SDS011;56615;42.682;23.364;2022-12-29T16:22:50;56.83;;;32.50;;
36475;SDS011;56615;42.682;23.364;2022-12-29T16:24:57;54.72;;;31.42;;
36475;SDS011;56615;42.682;23.364;2022-12-29T16:27:48;55.08;;;31.92;;
36475;SDS011;56615;42.682;23.364;2022-12-29T16:30:19;54.53;;;34.47;;
36475;SDS011;56615;42.682;23.364;2022-12-29T16:32:56;83.20;;;49.25;;
36475;SDS011;56615;42.682;23.364;2022-12-29T16:35:38;74.60;;;44.22;;
36475;SDS011;56615;42.682;23.364;2022-12-29T16:43:19;135.30;;;88.25;;
36475;SDS011;56615;42.682;23.364;2022-12-29T16:48:54;141.25;;;90.75;;
36475;SDS011;56615;42.682;23.364;2022-12-29T16:51:29;140.10;;;91.70;;
36475;SDS011;56615;42.682;23.364;2022-12-29T16:53:58;144.23;;;94.45;;
36475;SDS011;56615;42.682;23.364;2022-12-29T16:56:29;143.65;;;99.93;;
36475;SDS011;56615;42.682;23.364;2022-12-29T17:01:37;141.38;;;89.95;;
36475;SDS011;56615;42.682;23.364;2022-12-29T17:04:07;162.18;;;99.97;;
36475;SDS011;56615;42.682;23.364;2022-12-29T17:06:34;151.63;;;88.93;;
36475;SDS011;56615;42.682;23.364;2022-12-29T17:08:59;143.63;;;87.32;;
36475;SDS011;56615;42.682;23.364;2022-12-29T17:11:35;135.82;;;84.13;;
36475;SDS011;56615;42.682;23.364;2022-12-29T17:17:26;114.88;;;72.88;;
36475;SDS011;56615;42.682;23.364;2022-12-29T17:22:40;140.98;;;83.32;;
36475;SDS011;56615;42.682;23.364;2022-12-29T17:25:10;135.93;;;82.25;;
36475;SDS011;56615;42.682;23.364;2022-12-29T17:30:28;99.40;;;60.38;;
36475;SDS011;56615;42.682;23.364;2022-12-29T17:33:14;108.72;;;64.32;;
36475;SDS011;56615;42.682;23.364;2022-12-29T17:35:42;107.95;;;63.10;;
36475;SDS011;56615;42.682;23.364;2022-12-29T17:40:58;94.57;;;53.13;;
36475;SDS011;56615;42.682;23.364;2022-12-29T17:43:23;74.95;;;40.45;;
36475;SDS011;56615;42.682;23.364;2022-12-29T17:45:53;67.90;;;40.10;;
36475;SDS011;56615;42.682;23.364;2022-12-29T17:48:40;57.42;;;33.47;;
36475;SDS011;56615;42.682;23.364;2022-12-29T17:51:15;67.22;;;35.47;;
36475;SDS011;56615;42.682;23.364;2022-12-29T17:53:42;58.95;;;33.75;;
36475;SDS011;56615;42.682;23.364;2022-12-29T17:56:09;57.75;;;34.55;;
36475;SDS011;56615;42.682;23.364;2022-12-29T17:58:40;58.85;;;32.42;;
36475;SDS011;56615;42.682;23.364;2022-12-29T18:01:06;60.55;;;35.47;;
36475;SDS011;56615;42.682;23.364;2022-12-29T18:03:39;60.13;;;35.05;;
36475;SDS011;56615;42.682;23.364;2022-12-29T18:06:05;58.03;;;34.22;;
36475;SDS011;56615;42.682;23.364;2022-12-29T18:08:35;54.13;;;31.10;;
36475;SDS011;56615;42.682;23.364;2022-12-29T18:11:02;51.05;;;32.15;;
36475;SDS011;56615;42.682;23.364;2022-12-29T18:13:30;50.25;;;31.75;;
36475;SDS011;56615;42.682;23.364;2022-12-29T18:15:57;63.78;;;36.53;;
36475;SDS011;56615;42.682;23.364;2022-12-29T18:18:24;60.33;;;33.67;;
36475;SDS011;56615;42.682;23.364;2022-12-29T18:20:58;55.17;;;31.25;;
36475;SDS011;56615;42.682;23.364;2022-12-29T18:23:33;54.15;;;31.77;;
36475;SDS011;56615;42.682;23.364;2022-12-29T18:28:54;50.60;;;29.67;;
36475;SDS011;56615;42.682;23.364;2022-12-29T18:31:43;48.90;;;29.73;;
36475;SDS011;56615;42.682;23.364;2022-12-29T18:34:13;47.13;;;28.85;;
36475;SDS011;56615;42.682;23.364;2022-12-29T18:36:58;44.78;;;27.10;;
36475;SDS011;56615;42.682;23.364;2022-12-29T18:39:26;45.22;;;27.98;;
36475;SDS011;56615;42.682;23.364;2022-12-29T18:41:54;52.10;;;30.67;;
36475;SDS011;56615;42.682;23.364;2022-12-29T18:51:22;49.30;;;28.08;;
36475;SDS011;56615;42.682;23.364;2022-12-29T18:54:00;50.13;;;27.50;;
36475;SDS011;56615;42.682;23.364;2022-12-29T18:56:26;48.05;;;25.98;;
36475;SDS011;56615;42.682;23.364;2022-12-29T19:06:35;47.13;;;27.80;;
36475;SDS011;56615;42.682;23.364;2022-12-29T19:09:01;57.17;;;38.38;;
36475;SDS011;56615;42.682;23.364;2022-12-29T19:11:27;57.05;;;36.15;;
36475;SDS011;56615;42.682;23.364;2022-12-29T19:13:52;47.58;;;26.63;;
36475;SDS011;56615;42.682;23.364;2022-12-29T19:16:20;45.15;;;26.80;;
36475;SDS011;56615;42.682;23.364;2022-12-29T19:18:47;42.17;;;25.48;;
36475;SDS011;56615;42.682;23.364;2022-12-29T19:21:19;41.03;;;25.20;;
36475;SDS011;56615;42.682;23.364;2022-12-29T19:23:49;44.60;;;28.00;;
36475;SDS011;56615;42.682;23.364;2022-12-29T19:29:28;46.10;;;27.05;;
36475;SDS011;56615;42.682;23.364;2022-12-29T19:32:03;46.20;;;27.17;;
36475;SDS011;56615;42.682;23.364;2022-12-29T19:34:36;40.63;;;25.25;;
36475;SDS011;56615;42.682;23.364;2022-12-29T19:37:06;41.97;;;27.58;;
36475;SDS011;56615;42.682;23.364;2022-12-29T19:39:33;44.92;;;27.25;;